createdAt,value
2023-04-20T00:02:03.224Z,70.55
2023-04-20T00:04:31.714Z,70.37
2023-04-20T00:06:59.987Z,70.36
2023-04-20T00:09:28.592Z,69.99
2023-04-20T00:11:56.635Z,69.87
2023-04-20T00:14:24.876Z,69.64
2023-04-20T00:16:52.912Z,69.35
2023-04-20T00:19:21.323Z,69.21
2023-04-20T00:21:50.061Z,69.08
2023-04-20T00:24:18.117Z,69.00
2023-04-20T00:26:46.179Z,68.84
2023-04-20T00:29:14.393Z,68.57
2023-04-20T00:31:42.845Z,68.16
2023-04-20T00:34:11.237Z,68.06
2023-04-20T00:36:39.400Z,68.00
2023-04-20T00:39:07.710Z,68.18
2023-04-20T00:41:36.121Z,68.23
2023-04-20T00:44:04.410Z,68.32
2023-04-20T00:46:34.070Z,68.21
2023-04-20T00:49:02.166Z,68.28
2023-04-20T00:51:31.953Z,68.08
2023-04-20T00:54:00.203Z,67.84
2023-04-20T00:56:28.627Z,67.54
2023-04-20T00:58:56.870Z,67.66
2023-04-20T01:01:25.068Z,67.48
2023-04-20T01:03:53.954Z,67.26
2023-04-20T01:06:22.389Z,67.26
2023-04-20T01:08:51.301Z,67.73
2023-04-20T01:11:19.773Z,68.11
2023-04-20T01:13:47.848Z,68.09
2023-04-20T01:16:16.338Z,68.25
2023-04-20T01:18:47.351Z,68.67
2023-04-20T01:21:17.490Z,69.19
2023-04-20T01:23:46.197Z,69.40
2023-04-20T01:26:15.913Z,69.90
2023-04-20T01:28:44.668Z,70.16
2023-04-20T01:31:12.846Z,70.47
2023-04-20T01:33:41.830Z,70.85
2023-04-20T01:36:10.305Z,71.24
2023-04-20T01:38:38.602Z,71.49
2023-04-20T01:41:07.898Z,71.85
2023-04-20T01:43:36.318Z,71.98
2023-04-20T01:46:05.535Z,72.48
2023-04-20T01:48:33.859Z,72.73
2023-04-20T01:51:02.086Z,72.99
2023-04-20T01:53:30.506Z,73.14
2023-04-20T01:55:59.425Z,73.25
2023-04-20T01:58:27.718Z,73.66
2023-04-20T02:00:56.173Z,73.96
2023-04-20T02:03:24.548Z,74.07
2023-04-20T02:05:53.415Z,74.16
2023-04-20T02:08:22.009Z,74.29
2023-04-20T02:10:50.173Z,74.46
2023-04-20T02:13:18.435Z,74.62
2023-04-20T02:15:46.637Z,74.51
2023-04-20T02:18:16.245Z,74.66
2023-04-20T02:20:44.786Z,74.63
2023-04-20T02:23:13.155Z,74.74
2023-04-20T02:25:41.356Z,74.84
2023-04-20T02:28:09.773Z,75.05
2023-04-20T02:30:40.163Z,75.21
2023-04-20T02:33:08.453Z,75.12
2023-04-20T02:35:37.543Z,75.29
2023-04-20T02:38:05.714Z,75.36
2023-04-20T02:40:33.983Z,75.58
2023-04-20T02:43:02.580Z,75.70
2023-04-20T02:45:32.875Z,75.86
2023-04-20T02:48:01.119Z,75.85
2023-04-20T02:50:31.828Z,75.80
2023-04-20T02:53:21.672Z,75.64
2023-04-20T02:55:59.453Z,75.84
2023-04-20T02:58:37.590Z,76.01
2023-04-20T03:01:35.903Z,75.96
2023-04-20T03:04:10.091Z,75.76
2023-04-20T03:06:42.970Z,75.83
2023-04-20T03:09:13.260Z,75.77
2023-04-20T03:12:06.263Z,75.96
2023-04-20T03:15:00.829Z,76.18
2023-04-20T03:17:47.742Z,76.17
2023-04-20T03:20:16.692Z,76.21
2023-04-20T03:22:45.000Z,76.31
2023-04-20T03:25:13.404Z,76.21
2023-04-20T03:27:51.094Z,76.25
2023-04-20T03:30:20.598Z,76.34
2023-04-20T03:32:52.702Z,76.58
2023-04-20T03:35:21.100Z,76.80
2023-04-20T03:37:49.527Z,76.78
2023-04-20T03:40:17.804Z,76.78
2023-04-20T03:42:46.231Z,76.62
2023-04-20T03:45:15.783Z,76.89
2023-04-20T03:47:43.968Z,76.68
2023-04-20T03:50:12.237Z,76.74
2023-04-20T03:52:41.150Z,76.62
2023-04-20T03:55:10.168Z,76.98
2023-04-20T03:57:40.373Z,77.03
2023-04-20T04:00:10.966Z,76.97
2023-04-20T04:02:47.978Z,77.06
2023-04-20T04:05:21.529Z,77.15
2023-04-20T04:08:02.816Z,77.27
2023-04-20T04:10:31.520Z,77.39
2023-04-20T04:12:59.744Z,77.06
2023-04-20T04:15:28.282Z,77.18
2023-04-20T04:18:02.843Z,77.05
2023-04-20T04:20:32.315Z,77.39
2023-04-20T04:23:00.740Z,77.70
2023-04-20T04:25:42.555Z,77.90
2023-04-20T04:28:12.801Z,78.22
2023-04-20T04:30:47.507Z,78.45
2023-04-20T04:33:19.007Z,78.80
2023-04-20T04:35:47.470Z,78.85
2023-04-20T04:38:16.351Z,79.03
2023-04-20T04:40:46.737Z,79.37
2023-04-20T04:43:21.300Z,79.58
2023-04-20T04:45:58.618Z,79.77
2023-04-20T04:48:28.030Z,80.13
2023-04-20T04:50:56.185Z,80.39
2023-04-20T04:53:24.421Z,80.59
2023-04-20T04:55:52.516Z,80.48
2023-04-20T04:58:20.994Z,80.60
2023-04-20T05:00:49.477Z,81.00
2023-04-20T05:03:17.903Z,81.10
2023-04-20T05:05:46.277Z,81.25
2023-04-20T05:08:14.507Z,80.83
2023-04-20T05:10:42.609Z,80.89
2023-04-20T05:13:11.061Z,81.32
2023-04-20T05:15:39.242Z,81.34
2023-04-20T05:18:07.394Z,81.28
2023-04-20T05:20:35.576Z,81.09
2023-04-20T05:23:04.497Z,81.26
2023-04-20T05:25:32.973Z,81.33
2023-04-20T05:28:01.131Z,81.54
2023-04-20T05:30:29.502Z,81.36
2023-04-20T05:32:57.808Z,80.98
2023-04-20T05:35:26.149Z,80.95
2023-04-20T05:37:54.522Z,81.27
2023-04-20T05:40:22.724Z,81.33
2023-04-20T05:42:50.993Z,81.31
2023-04-20T05:45:19.365Z,81.23
2023-04-20T05:47:56.762Z,81.13
2023-04-20T05:50:25.491Z,80.90
2023-04-20T05:52:54.220Z,80.84
2023-04-20T05:55:23.032Z,80.80
2023-04-20T05:57:52.367Z,80.66
2023-04-20T06:00:21.756Z,80.57
2023-04-20T06:02:51.408Z,80.43
2023-04-20T06:05:21.073Z,80.83
2023-04-20T06:07:49.420Z,80.81
2023-04-20T06:10:17.711Z,80.85
2023-04-20T06:12:45.866Z,81.00
2023-04-20T06:15:14.033Z,80.99
2023-04-20T06:17:42.935Z,80.96
2023-04-20T06:20:11.785Z,81.36
2023-04-20T06:22:44.594Z,81.36
2023-04-20T06:25:16.748Z,81.32
2023-04-20T06:27:45.454Z,81.33
2023-04-20T06:30:14.294Z,81.36
2023-04-20T06:32:42.457Z,81.40
2023-04-20T06:35:11.022Z,81.25
2023-04-20T06:37:40.405Z,81.35
2023-04-20T06:40:08.997Z,81.22
2023-04-20T06:42:37.907Z,81.35
2023-04-20T06:45:07.273Z,81.46
2023-04-20T06:47:35.605Z,81.59
2023-04-20T06:50:07.426Z,81.39
2023-04-20T06:52:37.979Z,81.75
2023-04-20T06:55:06.269Z,81.87
2023-04-20T06:57:34.706Z,81.68
2023-04-20T07:00:03.169Z,81.91
2023-04-20T07:02:41.568Z,82.06
2023-04-20T07:05:10.518Z,82.13
2023-04-20T07:07:39.599Z,82.00
2023-04-20T07:10:09.394Z,82.11
2023-04-20T07:12:38.825Z,82.01
2023-04-20T07:15:08.600Z,82.11
2023-04-20T07:17:37.630Z,82.13
2023-04-20T07:20:08.578Z,81.88
2023-04-20T07:22:38.149Z,82.26
2023-04-20T07:25:08.210Z,82.36
2023-04-20T07:27:40.531Z,82.33
2023-04-20T07:30:10.766Z,82.56
2023-04-20T07:32:40.931Z,82.40
2023-04-20T07:35:10.026Z,82.41
2023-04-20T07:37:38.989Z,82.23
2023-04-20T07:40:07.919Z,82.32
2023-04-20T07:42:37.492Z,82.65
2023-04-20T07:45:09.731Z,82.87
2023-04-20T07:47:38.103Z,82.91
2023-04-20T07:50:07.420Z,82.92
2023-04-20T07:52:35.934Z,83.28
2023-04-20T07:55:06.213Z,83.18
2023-04-20T07:57:34.973Z,83.37
2023-04-20T08:00:07.391Z,83.97
2023-04-20T08:02:41.900Z,83.90
2023-04-20T08:05:10.760Z,83.90
2023-04-20T08:07:40.887Z,84.27
2023-04-20T08:10:10.324Z,84.38
2023-04-20T08:12:39.992Z,84.45
2023-04-20T08:15:09.379Z,84.65
2023-04-20T08:17:38.315Z,84.68
2023-04-20T08:20:08.026Z,84.65
2023-04-20T08:22:38.363Z,84.64
2023-04-20T08:25:06.737Z,84.66
2023-04-20T08:27:35.196Z,84.95
2023-04-20T08:30:04.531Z,85.14
2023-04-20T08:32:33.433Z,85.52
2023-04-20T08:35:01.779Z,85.89
2023-04-20T08:37:32.503Z,85.79
2023-04-20T08:40:01.700Z,85.83
2023-04-20T08:42:30.080Z,85.71
2023-04-20T08:44:58.573Z,85.77
2023-04-20T08:47:28.005Z,85.58
2023-04-20T08:49:56.351Z,85.16
2023-04-20T08:52:24.626Z,85.26
2023-04-20T08:54:57.315Z,85.38
2023-04-20T08:57:26.642Z,85.42
2023-04-20T08:59:55.111Z,85.48
2023-04-20T09:02:23.284Z,85.46
2023-04-20T09:05:01.491Z,85.41
2023-04-20T09:07:30.036Z,85.59
2023-04-20T09:09:59.260Z,85.59
2023-04-20T09:12:28.172Z,85.65
2023-04-20T09:14:56.818Z,85.70
2023-04-20T09:17:36.319Z,85.80
2023-04-20T09:20:05.398Z,85.98
2023-04-20T09:22:37.792Z,85.93
2023-04-20T09:25:16.132Z,85.77
2023-04-20T09:27:58.227Z,85.80
2023-04-20T09:30:43.401Z,85.88
2023-04-20T09:33:12.689Z,85.97
2023-04-20T09:35:44.564Z,86.13
2023-04-20T09:38:15.968Z,86.35
2023-04-20T09:40:44.292Z,86.43
2023-04-20T09:43:19.527Z,86.29
2023-04-20T09:45:47.788Z,86.57
2023-04-20T09:48:19.282Z,86.59
2023-04-20T09:50:50.566Z,86.82
2023-04-20T09:53:20.258Z,86.89
2023-04-20T09:55:49.903Z,86.67
2023-04-20T09:58:19.953Z,86.45
2023-04-20T10:00:48.312Z,86.29
2023-04-20T10:03:18.448Z,86.65
2023-04-20T10:05:47.227Z,86.45
2023-04-20T10:08:15.505Z,86.18
2023-04-20T10:10:48.481Z,86.25
2023-04-20T10:13:22.013Z,86.23
2023-04-20T10:15:50.266Z,86.16
2023-04-20T10:18:26.603Z,86.09
2023-04-20T10:21:06.403Z,86.16
2023-04-20T10:23:34.942Z,86.20
2023-04-20T10:26:04.092Z,86.14
2023-04-20T10:28:40.561Z,86.23
2023-04-20T10:31:08.990Z,86.46
2023-04-20T10:33:37.450Z,86.57
2023-04-20T10:36:05.863Z,86.49
2023-04-20T10:38:35.256Z,86.48
2023-04-20T10:41:09.870Z,86.51
2023-04-20T10:43:42.366Z,86.27
2023-04-20T10:46:28.634Z,86.33
2023-04-20T10:48:58.788Z,86.25
2023-04-20T10:51:27.003Z,86.28
2023-04-20T10:54:18.322Z,86.08
2023-04-20T10:56:48.428Z,85.92
2023-04-20T10:59:23.668Z,86.02
2023-04-20T11:01:52.276Z,86.10
2023-04-20T11:04:33.169Z,86.21
2023-04-20T11:07:07.122Z,86.16
2023-04-20T11:09:35.791Z,86.19
2023-04-20T11:12:07.850Z,86.39
2023-04-20T11:14:38.561Z,86.21
2023-04-20T11:17:06.905Z,86.48
2023-04-20T11:19:36.299Z,86.71
2023-04-20T11:22:05.470Z,87.08
2023-04-20T11:24:36.291Z,87.10
2023-04-20T11:27:04.990Z,87.18
2023-04-20T11:29:34.943Z,87.19
2023-04-20T11:32:07.339Z,87.30
2023-04-20T11:34:37.083Z,87.53
2023-04-20T11:37:06.670Z,87.69
2023-04-20T11:39:36.683Z,87.83
2023-04-20T11:42:05.223Z,88.04
2023-04-20T11:44:34.503Z,88.15
2023-04-20T11:47:03.923Z,88.28
2023-04-20T11:49:32.836Z,88.06
2023-04-20T11:52:01.260Z,87.99
2023-04-20T11:54:32.411Z,88.04
2023-04-20T11:57:00.857Z,87.85
2023-04-20T11:59:29.155Z,87.61
2023-04-20T12:01:57.340Z,87.56
2023-04-20T12:04:25.988Z,87.62
2023-04-20T12:06:54.399Z,87.33
2023-04-20T12:09:22.758Z,87.22
2023-04-20T12:11:50.865Z,87.01
2023-04-20T12:14:19.011Z,86.50
2023-04-20T12:16:47.073Z,86.58
2023-04-20T12:19:16.248Z,86.50
2023-04-20T12:21:44.610Z,86.65
2023-04-20T12:24:12.941Z,86.28
2023-04-20T12:26:41.265Z,86.29
2023-04-20T12:29:09.338Z,86.31
2023-04-20T12:31:37.603Z,85.93
2023-04-20T12:34:06.679Z,85.02
2023-04-20T12:36:35.268Z,84.44
2023-04-20T12:39:04.198Z,84.22
2023-04-20T12:41:33.382Z,83.96
2023-04-20T12:44:04.328Z,83.62
2023-04-20T12:46:34.508Z,83.41
2023-04-20T12:49:03.235Z,83.57
2023-04-20T12:51:32.394Z,83.91
2023-04-20T12:54:00.951Z,84.53
2023-04-20T12:56:29.198Z,85.29
2023-04-20T12:58:57.815Z,85.82
2023-04-20T13:01:26.715Z,86.27
2023-04-20T13:03:56.279Z,86.55
2023-04-20T13:06:24.586Z,86.54
2023-04-20T13:08:52.873Z,86.54
2023-04-20T13:11:20.958Z,86.59
2023-04-20T13:13:49.087Z,86.76
2023-04-20T13:16:17.255Z,86.78
2023-04-20T13:18:45.469Z,86.49
2023-04-20T13:21:13.733Z,86.61
2023-04-20T13:23:42.005Z,86.48
2023-04-20T13:26:10.282Z,86.22
2023-04-20T13:28:38.967Z,86.00
2023-04-20T13:31:07.349Z,86.09
2023-04-20T13:33:35.984Z,85.75
2023-04-20T13:36:04.564Z,85.74
2023-04-20T13:38:33.261Z,85.70
2023-04-20T13:41:01.476Z,85.90
2023-04-20T13:43:31.051Z,85.88
2023-04-20T13:45:59.285Z,85.91
2023-04-20T13:48:27.599Z,85.68
2023-04-20T13:50:56.628Z,85.55
2023-04-20T13:53:24.777Z,85.62
2023-04-20T13:55:53.100Z,85.44
2023-04-20T13:58:21.483Z,85.63
2023-04-20T14:00:49.640Z,85.61
2023-04-20T14:03:20.317Z,85.58
2023-04-20T14:05:51.067Z,85.53
2023-04-20T14:08:20.927Z,85.72
2023-04-20T14:10:49.097Z,85.40
2023-04-20T14:13:17.575Z,85.26
2023-04-20T14:15:45.786Z,85.17
2023-04-20T14:18:14.324Z,84.80
2023-04-20T14:20:42.707Z,84.42
2023-04-20T14:23:10.799Z,84.14
2023-04-20T14:25:38.930Z,84.34
2023-04-20T14:28:07.097Z,84.17
2023-04-20T14:30:35.943Z,84.27
2023-04-20T14:33:05.418Z,84.27
2023-04-20T14:35:34.815Z,84.48
2023-04-20T14:38:03.093Z,84.33
2023-04-20T14:40:32.394Z,84.30
2023-04-20T14:43:00.883Z,84.15
2023-04-20T14:45:29.254Z,84.16
2023-04-20T14:47:57.393Z,83.95
2023-04-20T14:50:28.985Z,83.53
2023-04-20T14:52:57.254Z,83.86
2023-04-20T14:55:26.301Z,83.74
2023-04-20T14:57:55.956Z,83.78
2023-04-20T15:00:25.345Z,83.47
2023-04-20T15:02:56.375Z,83.39
2023-04-20T15:05:26.037Z,83.41
2023-04-20T15:07:54.531Z,83.35
2023-04-20T15:10:22.763Z,82.96
2023-04-20T15:12:51.249Z,82.85
2023-04-20T15:15:19.400Z,82.78
2023-04-20T15:17:47.738Z,82.76
2023-04-20T15:20:15.971Z,82.84
2023-04-20T15:22:44.471Z,83.07
2023-04-20T15:25:12.736Z,82.84
2023-04-20T15:27:41.213Z,82.57
2023-04-20T15:30:09.991Z,82.28
2023-04-20T15:32:38.394Z,82.38
2023-04-20T15:35:06.804Z,82.63
2023-04-20T15:37:35.027Z,82.70
2023-04-20T15:40:03.314Z,82.65
2023-04-20T15:42:32.002Z,82.45
2023-04-20T15:45:00.177Z,81.67
2023-04-20T15:47:28.346Z,81.08
2023-04-20T15:50:01.622Z,81.10
2023-04-20T15:52:31.236Z,81.25
2023-04-20T15:54:59.512Z,81.05
2023-04-20T15:57:29.324Z,81.38
2023-04-20T15:59:58.014Z,81.85
2023-04-20T16:02:26.334Z,82.41
2023-04-20T16:04:54.924Z,82.78
2023-04-20T16:07:23.456Z,83.12
2023-04-20T16:09:51.835Z,83.43
2023-04-20T16:12:20.020Z,83.70
2023-04-20T16:14:48.797Z,84.14
2023-04-20T16:17:17.127Z,84.25
2023-04-20T16:19:45.357Z,84.39
2023-04-20T16:22:14.458Z,84.46
2023-04-20T16:24:42.615Z,84.86
2023-04-20T16:27:10.909Z,84.94
2023-04-20T16:29:39.175Z,84.83
2023-04-20T16:32:07.352Z,84.72
2023-04-20T16:34:35.827Z,84.93
2023-04-20T16:37:04.083Z,85.11
2023-04-20T16:39:32.793Z,85.25
2023-04-20T16:42:01.573Z,85.27
2023-04-20T16:44:29.825Z,85.11
2023-04-20T16:46:58.258Z,85.12
2023-04-20T16:49:27.294Z,85.15
2023-04-20T16:51:55.601Z,85.13
2023-04-20T16:54:23.779Z,85.07
2023-04-20T16:56:51.948Z,84.90
2023-04-20T16:59:21.048Z,84.92
2023-04-20T17:01:49.457Z,85.10
2023-04-20T17:04:18.540Z,85.16
2023-04-20T17:06:47.224Z,85.09
2023-04-20T17:09:15.398Z,84.78
2023-04-20T17:11:43.653Z,84.62
2023-04-20T17:14:11.864Z,84.42
2023-04-20T17:16:40.031Z,84.31
2023-04-20T17:19:08.274Z,84.11
2023-04-20T17:21:36.856Z,84.09
2023-04-20T17:24:05.320Z,83.94
2023-04-20T17:26:34.329Z,83.77
2023-04-20T17:29:02.405Z,83.65
2023-04-20T17:31:33.752Z,83.54
2023-04-20T17:34:01.974Z,83.46
2023-04-20T17:36:30.556Z,83.39
2023-04-20T17:38:58.837Z,83.20
2023-04-20T17:41:27.267Z,83.02
2023-04-20T17:43:55.444Z,83.18
2023-04-20T17:46:23.905Z,83.48
2023-04-20T17:48:52.320Z,83.49
2023-04-20T17:51:20.888Z,83.34
2023-04-20T17:53:48.948Z,83.09
2023-04-20T17:56:17.251Z,82.81
2023-04-20T17:58:46.429Z,82.99
2023-04-20T18:01:14.773Z,82.96
2023-04-20T18:03:42.983Z,82.61
2023-04-20T18:06:11.358Z,82.65
2023-04-20T18:08:39.787Z,82.32
2023-04-20T18:11:07.896Z,81.94
2023-04-20T18:13:36.118Z,82.08
2023-04-20T18:16:07.355Z,82.26
2023-04-20T18:18:36.042Z,81.93
2023-04-20T18:21:04.528Z,81.78
2023-04-20T18:23:32.989Z,81.93
2023-04-20T18:26:01.278Z,82.05
2023-04-20T18:28:29.599Z,81.69
2023-04-20T18:30:59.028Z,81.51
2023-04-20T18:33:27.519Z,81.71
2023-04-20T18:35:55.689Z,81.90
2023-04-20T18:38:23.754Z,81.68
2023-04-20T18:40:52.137Z,81.87
2023-04-20T18:43:20.414Z,81.79
2023-04-20T18:45:48.710Z,81.98
2023-04-20T18:48:17.507Z,82.09
2023-04-20T18:50:47.430Z,82.05
2023-04-20T18:53:16.914Z,82.33
2023-04-20T18:55:45.820Z,82.26
2023-04-20T18:58:13.961Z,82.26
2023-04-20T19:00:42.067Z,82.38
2023-04-20T19:03:10.880Z,82.75
2023-04-20T19:05:39.262Z,82.96
2023-04-20T19:08:07.508Z,83.37
2023-04-20T19:10:35.959Z,83.29
2023-04-20T19:13:04.239Z,83.44
2023-04-20T19:15:32.750Z,83.51
2023-04-20T19:18:00.878Z,83.61
2023-04-20T19:20:29.582Z,83.85
2023-04-20T19:22:57.859Z,84.14
2023-04-20T19:25:26.110Z,84.35
2023-04-20T19:27:54.182Z,84.40
2023-04-20T19:30:22.689Z,84.43
2023-04-20T19:32:50.790Z,84.53
2023-04-20T19:35:18.969Z,84.79
2023-04-20T19:37:47.200Z,84.77
2023-04-20T19:40:16.399Z,84.92
2023-04-20T19:42:44.990Z,84.60
2023-04-20T19:45:13.152Z,84.67
2023-04-20T19:47:41.759Z,84.81
2023-04-20T19:50:11.219Z,85.07
2023-04-20T19:52:39.746Z,85.37
2023-04-20T19:55:08.471Z,85.58
2023-04-20T19:57:36.723Z,85.79
2023-04-20T20:00:05.895Z,85.79
2023-04-20T20:02:41.731Z,85.97
2023-04-20T20:05:10.135Z,85.91
2023-04-20T20:07:38.618Z,85.81
2023-04-20T20:10:07.277Z,86.00
2023-04-20T20:12:35.574Z,86.08
2023-04-20T20:15:04.969Z,85.93
2023-04-20T20:17:33.274Z,85.87
2023-04-20T20:20:02.253Z,86.02
2023-04-20T20:22:30.719Z,86.05
2023-04-20T20:24:58.981Z,86.20
2023-04-20T20:27:30.248Z,86.46
2023-04-20T20:29:58.314Z,86.59
2023-04-20T20:32:26.417Z,86.86
2023-04-20T20:34:54.846Z,86.99
2023-04-20T20:37:24.472Z,87.12
2023-04-20T20:39:53.280Z,87.21
2023-04-20T20:42:21.620Z,87.34
2023-04-20T20:44:49.869Z,87.38
2023-04-20T20:47:18.152Z,87.14
2023-04-20T20:49:46.558Z,86.95
2023-04-20T20:52:14.621Z,86.69
2023-04-20T20:54:42.952Z,86.72
2023-04-20T20:57:11.110Z,86.14
2023-04-20T20:59:39.864Z,86.07
2023-04-20T21:02:08.161Z,85.84
2023-04-20T21:04:37.332Z,85.86
2023-04-20T21:07:06.028Z,85.50
2023-04-20T21:09:34.518Z,85.41
2023-04-20T21:12:04.827Z,85.11
2023-04-20T21:14:34.132Z,85.03
2023-04-20T21:17:02.564Z,85.16
2023-04-20T21:19:30.994Z,85.09
2023-04-20T21:21:59.355Z,84.70
2023-04-20T21:24:27.852Z,84.55
2023-04-20T21:26:56.757Z,84.53
2023-04-20T21:29:24.836Z,84.03
2023-04-20T21:31:53.087Z,84.05
2023-04-20T21:34:21.678Z,84.06
2023-04-20T21:36:49.840Z,83.97
2023-04-20T21:39:18.496Z,83.81
2023-04-20T21:41:47.002Z,84.08
2023-04-20T21:44:15.190Z,83.65
2023-04-20T21:46:43.636Z,83.78
2023-04-20T21:49:11.873Z,83.62
2023-04-20T21:51:40.223Z,83.39
2023-04-20T21:54:08.391Z,83.40
2023-04-20T21:56:36.870Z,83.26
2023-04-20T21:59:05.375Z,82.98
2023-04-20T22:01:34.077Z,82.93
2023-04-20T22:04:02.627Z,83.21
2023-04-20T22:06:32.715Z,82.79
2023-04-20T22:09:00.947Z,82.73
2023-04-20T22:11:29.766Z,82.68
2023-04-20T22:13:57.879Z,82.48
2023-04-20T22:16:26.112Z,82.07
2023-04-20T22:18:54.526Z,81.99
2023-04-20T22:21:22.699Z,82.26
2023-04-20T22:23:51.082Z,82.18
2023-04-20T22:26:19.281Z,81.69
2023-04-20T22:28:47.525Z,81.51
2023-04-20T22:31:16.398Z,81.50
2023-04-20T22:33:44.672Z,81.26
2023-04-20T22:36:13.111Z,80.97
2023-04-20T22:38:41.393Z,80.80
2023-04-20T22:41:09.834Z,81.04
2023-04-20T22:43:38.310Z,80.75
2023-04-20T22:46:06.488Z,80.67
2023-04-20T22:48:35.104Z,80.29
2023-04-20T22:51:03.656Z,80.08
2023-04-20T22:53:31.969Z,80.07
2023-04-20T22:56:07.461Z,79.88
2023-04-20T22:58:36.007Z,79.88
2023-04-20T23:01:04.302Z,79.89
2023-04-20T23:03:32.883Z,79.35
2023-04-20T23:06:01.180Z,79.48
2023-04-20T23:08:29.647Z,79.48
2023-04-20T23:10:57.771Z,79.63
2023-04-20T23:13:26.506Z,79.63
2023-04-20T23:15:54.730Z,79.73
